Time;durP1;ratioP1;P1;durP2;ratioP2;P2;SDS_P1;SDS_P2;PMS_P1;PMS_P2;Temp;Humidity;BMP_temperature;BMP_pressure;BME280_temperature;BME280_humidity;BME280_pressure;Samples;Min_cycle;Max_cycle;Signal;HPM_P1;HPM_P2
2023/09/04 00:01:41;;;;;;;1.98;0.80;;;;;;;12.85;100.00;99641.81;15271206;19;20027;-49
2023/09/04 00:07:09;;;;;;;2.47;0.85;;;;;;;12.81;100.00;99642.25;15277628;19;20015;-50
2023/09/04 00:12:34;;;;;;;1.60;0.90;;;;;;;12.75;100.00;99643.69;15267448;19;20504;-48
2023/09/04 00:17:58;;;;;;;1.60;0.75;;;;;;;12.71;100.00;99642.25;15276852;19;20021;-48
2023/09/04 00:23:26;;;;;;;0.80;0.80;;;;;;;12.67;100.00;99644.41;15272996;19;20717;-53
2023/09/04 00:28:52;;;;;;;2.58;0.95;;;;;;;12.61;100.00;99666.59;15273289;19;20022;-48
2023/09/04 00:34:18;;;;;;;1.92;0.90;;;;;;;12.54;100.00;99668.19;15277088;19;20035;-48
2023/09/04 00:39:46;;;;;;;2.85;0.80;;;;;;;12.47;100.00;99667.91;15280458;19;20028;-50
2023/09/04 00:45:14;;;;;;;1.30;0.80;;;;;;;12.42;100.00;99667.47;15277438;19;20014;-53
2023/09/04 00:50:42;;;;;;;1.35;0.95;;;;;;;12.38;100.00;99660.66;15277797;19;20014;-54
2023/09/04 00:56:12;;;;;;;2.67;1.20;;;;;;;12.35;100.00;99677.97;15277594;19;20043;-51
2023/09/04 01:01:40;;;;;;;1.93;1.10;;;;;;;12.28;100.00;99685.84;15268340;19;20395;-51
2023/09/04 01:07:13;;;;;;;1.95;1.00;;;;;;;12.24;100.00;99692.50;15278695;19;20261;-51
2023/09/04 01:12:48;;;;;;;2.03;1.08;;;;;;;12.20;100.00;99698.34;15274091;19;20656;-49
2023/09/04 01:18:13;;;;;;;2.97;1.17;;;;;;;12.14;100.00;99703.28;15274312;19;20015;-48
2023/09/04 01:23:40;;;;;;;2.00;1.17;;;;;;;12.11;100.00;99713.53;15272626;19;20017;-51
2023/09/04 01:29:16;;;;;;;2.42;1.40;;;;;;;12.10;100.00;99711.81;15278228;19;20029;-54
2023/09/04 01:34:44;;;;;;;2.17;1.15;;;;;;;12.08;100.00;99721.91;15270420;19;20018;-51
2023/09/04 01:40:13;;;;;;;1.65;1.00;;;;;;;12.02;100.00;99718.78;15274341;19;20081;-51
2023/09/04 01:45:38;;;;;;;2.00;1.02;;;;;;;11.99;100.00;99723.59;15275410;19;20740;-53
2023/09/04 01:51:03;;;;;;;2.75;1.00;;;;;;;11.94;100.00;99713.16;15263027;19;20417;-51
2023/09/04 01:56:33;;;;;;;1.10;1.00;;;;;;;11.88;100.00;99701.06;15272584;19;20018;-51
2023/09/04 02:02:00;;;;;;;2.35;1.10;;;;;;;11.83;100.00;99702.47;15267074;19;20085;-51
2023/09/04 02:07:32;;;;;;;2.83;1.00;;;;;;;11.77;100.00;99705.75;15265958;19;20078;-55
2023/09/04 02:12:59;;;;;;;1.98;0.90;;;;;;;11.74;100.00;99697.91;15266878;19;20097;-52
2023/09/04 02:18:27;;;;;;;1.52;1.02;;;;;;;11.68;100.00;99702.88;15271428;19;20662;-54
2023/09/04 02:23:53;;;;;;;1.92;1.00;;;;;;;11.64;100.00;99700.59;15270896;19;20397;-52
2023/09/04 02:29:20;;;;;;;1.40;1.15;;;;;;;11.58;100.00;99696.59;15270109;19;20053;-55
2023/09/04 02:34:45;;;;;;;3.00;1.33;;;;;;;11.56;100.00;99701.25;15264127;19;20234;-56
2023/09/04 02:40:09;;;;;;;1.48;1.20;;;;;;;11.47;100.00;99719.13;15268873;19;20026;-56
2023/09/04 02:45:38;;;;;;;2.47;1.45;;;;;;;11.45;100.00;99720.25;15271436;19;20070;-52
2023/09/04 02:51:07;;;;;;;3.28;1.50;;;;;;;11.39;100.00;99717.09;15258538;19;20077;-55
2023/09/04 02:56:32;;;;;;;3.97;1.70;;;;;;;11.37;100.00;99734.41;15270503;19;20369;-56
2023/09/04 03:02:01;;;;;;;1.90;1.50;;;;;;;11.34;100.00;99731.97;15276435;19;20387;-54
2023/09/04 03:07:28;;;;;;;2.72;1.50;;;;;;;11.31;100.00;99727.72;15277998;19;20073;-56
2023/09/04 03:12:53;;;;;;;1.92;1.50;;;;;;;11.28;100.00;99725.28;15271914;19;20044;-55
2023/09/04 03:18:21;;;;;;;2.28;1.50;;;;;;;11.28;100.00;99713.63;15281285;19;20042;-53
2023/09/04 03:23:47;;;;;;;2.58;1.70;;;;;;;11.25;100.00;99725.53;15275875;19;20475;-52
2023/09/04 03:29:13;;;;;;;3.72;2.10;;;;;;;11.24;100.00;99722.00;15283259;19;20029;-54
2023/09/04 03:34:40;;;;;;;2.45;1.60;;;;;;;11.24;100.00;99731.91;15281771;19;20010;-52
2023/09/04 03:40:20;;;;;;;2.10;1.90;;;;;;;11.24;100.00;99735.47;15275998;19;20018;-53
2023/09/04 03:45:46;;;;;;;;;;;;;;;11.22;100.00;99750.94;15284060;19;20010;-55
2023/09/04 03:51:13;;;;;;;4.97;3.10;;;;;;;11.21;100.00;99787.00;14771255;19;10001540;-54
2023/09/04 03:56:39;;;;;;;3.47;2.67;;;;;;;11.20;100.00;99789.84;15277742;19;20002;-55
2023/09/04 04:02:04;;;;;;;3.55;2.72;;;;;;;11.22;100.00;99790.56;15277865;19;20018;-51
2023/09/04 04:07:31;;;;;;;6.53;3.10;;;;;;;11.20;100.00;99773.66;15275117;19;20018;-52
2023/09/04 04:12:57;;;;;;;2.92;2.38;;;;;;;11.20;100.00;99773.66;15273389;19;20015;-53
2023/09/04 04:18:21;;;;;;;2.58;2.30;;;;;;;11.17;100.00;99768.50;15281887;19;20026;-53
2023/09/04 04:23:48;;;;;;;3.17;2.40;;;;;;;11.17;100.00;99765.81;15275548;19;20089;-52
2023/09/04 04:29:14;;;;;;;3.60;2.90;;;;;;;11.16;100.00;99773.06;15269944;19;20050;-55
2023/09/04 04:34:39;;;;;;;3.28;2.60;;;;;;;11.17;100.00;99788.25;15271730;19;20022;-53
2023/09/04 04:40:09;;;;;;;6.05;3.58;;;;;;;11.17;100.00;99804.41;15277098;19;20038;-55
2023/09/04 04:45:34;;;;;;;4.32;3.90;;;;;;;11.17;100.00;99827.84;15275234;19;20479;-55
2023/09/04 04:51:00;;;;;;;4.70;4.25;;;;;;;11.15;100.00;99841.50;15274124;19;20051;-55
2023/09/04 04:56:27;;;;;;;3.33;2.20;;;;;;;11.16;100.00;99851.28;15278681;19;20022;-55
2023/09/04 05:01:54;;;;;;;2.17;1.60;;;;;;;11.10;100.00;99831.09;15267712;19;20014;-55
2023/09/04 05:07:27;;;;;;;2.75;1.75;;;;;;;11.08;100.00;99824.97;15273645;19;20795;-55
2023/09/04 05:12:55;;;;;;;2.60;1.60;;;;;;;11.04;100.00;99826.19;15271530;19;20031;-56
2023/09/04 05:18:20;;;;;;;3.05;2.00;;;;;;;11.03;100.00;99824.47;15273923;19;20026;-58
2023/09/04 05:23:47;;;;;;;4.55;2.28;;;;;;;11.06;100.00;99840.41;15269068;19;20026;-57
2023/09/04 05:29:15;;;;;;;3.40;2.65;;;;;;;11.09;100.00;99842.00;15275095;19;20384;-57
2023/09/04 05:34:40;;;;;;;3.10;2.60;;;;;;;11.14;100.00;99849.69;15269312;19;20022;-56
2023/09/04 05:40:04;;;;;;;2.88;2.30;;;;;;;11.18;100.00;99859.25;15275241;19;20025;-53
2023/09/04 05:45:32;;;;;;;2.17;1.80;;;;;;;11.25;100.00;99860.44;15274010;19;20038;-57
2023/09/04 05:50:57;;;;;;;2.95;1.70;;;;;;;11.31;100.00;99876.09;15270549;19;20029;-56
2023/09/04 05:56:22;;;;;;;3.38;2.13;;;;;;;11.42;100.00;99883.28;15276316;19;20082;-52
2023/09/04 06:01:49;;;;;;;4.93;2.22;;;;;;;11.52;100.00;99888.75;15271141;19;20026;-56
2023/09/04 06:07:15;;;;;;;4.07;2.30;;;;;;;11.64;100.00;99894.97;15269179;19;20022;-55
2023/09/04 06:12:39;;;;;;;9.32;2.50;;;;;;;11.76;100.00;99898.44;15270573;19;21089;-56
2023/09/04 06:18:06;;;;;;;8.20;2.42;;;;;;;11.91;100.00;99915.16;15276046;19;20043;-57
2023/09/04 06:23:32;;;;;;;5.60;2.28;;;;;;;12.05;100.00;99938.31;15266819;19;20019;-55
2023/09/04 06:28:59;;;;;;;3.60;2.10;;;;;;;12.19;100.00;99948.75;15273510;19;20045;-55
2023/09/04 06:34:26;;;;;;;3.15;2.40;;;;;;;12.35;100.00;99944.69;15280057;19;20733;-55
2023/09/04 06:39:51;;;;;;;6.03;2.13;;;;;;;12.47;100.00;99944.47;15283159;19;20018;-57
2023/09/04 06:45:17;;;;;;;3.03;2.00;;;;;;;12.60;100.00;99944.25;15287821;19;20014;-56
2023/09/04 06:50:44;;;;;;;1.90;1.77;;;;;;;12.80;100.00;99941.59;15284793;19;20025;-58
2023/09/04 06:56:09;;;;;;;2.10;1.63;;;;;;;12.95;100.00;99942.91;15280726;19;20734;-54
2023/09/04 07:01:35;;;;;;;2.55;1.75;;;;;;;13.11;100.00;99930.72;15282670;19;20505;-52
2023/09/04 07:07:02;;;;;;;2.72;1.60;;;;;;;13.29;100.00;99924.59;15284260;19;20478;-56
2023/09/04 07:12:27;;;;;;;4.47;1.60;;;;;;;13.46;100.00;99899.56;15276476;19;20029;-57
2023/09/04 07:17:52;;;;;;;2.60;1.50;;;;;;;13.63;100.00;99861.88;15285794;19;20383;-58
2023/09/04 07:23:20;;;;;;;2.75;1.33;;;;;;;13.82;100.00;99845.56;15278982;19;20944;-58
2023/09/04 07:28:45;;;;;;;3.25;1.55;;;;;;;13.97;100.00;99828.84;15282888;19;20134;-56
2023/09/04 07:34:10;;;;;;;2.88;1.60;;;;;;;14.13;100.00;99811.94;15284422;19;20018;-57
2023/09/04 07:39:37;;;;;;;2.58;1.30;;;;;;;14.32;100.00;99811.88;15285582;19;20029;-58
2023/09/04 07:45:03;;;;;;;3.42;1.30;;;;;;;14.50;100.00;99778.47;15275709;19;20011;-56
2023/09/04 07:50:28;;;;;;;2.17;1.38;;;;;;;14.71;100.00;99763.78;15283906;19;20339;-55
2023/09/04 07:55:56;;;;;;;2.15;1.23;;;;;;;14.88;100.00;99756.66;15286065;19;20021;-56
2023/09/04 08:01:20;;;;;;;1.23;1.00;;;;;;;15.07;100.00;99751.06;15277402;19;20337;-56
2023/09/04 08:06:45;;;;;;;2.83;1.25;;;;;;;15.28;100.00;99732.72;15285032;19;20018;-56
2023/09/04 08:12:13;;;;;;;0.90;0.70;;;;;;;15.56;100.00;99715.22;15280734;19;20018;-57
2023/09/04 08:17:40;;;;;;;2.10;0.75;;;;;;;15.77;100.00;99707.69;15275534;19;20019;-57
2023/09/04 08:23:06;;;;;;;1.00;0.70;;;;;;;16.00;100.00;99703.38;15273997;19;20014;-54
2023/09/04 08:28:34;;;;;;;1.23;0.70;;;;;;;16.28;100.00;99678.66;15280599;19;20366;-55
2023/09/04 08:33:59;;;;;;;1.17;0.73;;;;;;;16.53;100.00;99678.66;15273466;19;20030;-56
2023/09/04 08:39:24;;;;;;;2.35;0.60;;;;;;;16.92;100.00;99668.97;15279237;19;20566;-55
2023/09/04 08:44:54;;;;;;;1.27;0.60;;;;;;;17.15;100.00;99663.69;15273462;19;20021;-54
2023/09/04 08:50:21;;;;;;;1.33;0.60;;;;;;;17.38;100.00;99652.03;15270655;19;20043;-58
2023/09/04 08:55:46;;;;;;;1.90;0.70;;;;;;;17.56;100.00;99651.81;15277307;19;20016;-56
2023/09/04 09:01:17;;;;;;;3.10;0.52;;;;;;;17.72;100.00;99648.16;15273915;19;20531;-56
2023/09/04 09:06:44;;;;;;;1.45;0.70;;;;;;;18.00;100.00;99644.97;15273341;19;20359;-57
2023/09/04 09:12:10;;;;;;;1.25;0.50;;;;;;;18.20;100.00;99634.47;15271846;19;20016;-52
2023/09/04 09:17:37;;;;;;;0.60;0.60;;;;;;;18.38;100.00;99636.88;15278094;19;20011;-57
2023/09/04 09:23:04;;;;;;;1.02;0.60;;;;;;;18.59;100.00;99627.16;15267723;19;20085;-55
2023/09/04 09:28:30;;;;;;;2.25;0.52;;;;;;;18.75;100.00;99616.13;15272770;19;20098;-54
2023/09/04 09:33:58;;;;;;;0.85;0.60;;;;;;;18.87;100.00;99611.03;15274491;19;20021;-55
2023/09/04 09:39:24;;;;;;;2.55;0.60;;;;;;;19.07;100.00;99597.72;15270175;19;20074;-57
2023/09/04 09:44:50;;;;;;;0.80;0.50;;;;;;;19.25;100.00;99607.41;15270281;19;20099;-53
2023/09/04 09:50:18;;;;;;;0.90;0.57;;;;;;;19.39;100.00;99600.25;15268729;19;20024;-52
2023/09/04 09:55:46;;;;;;;1.63;0.70;;;;;;;19.50;100.00;99590.72;15272660;19;20021;-55
2023/09/04 10:01:11;;;;;;;0.57;0.55;;;;;;;19.65;100.00;99593.41;15270367;19;20077;-54
2023/09/04 10:06:42;;;;;;;1.02;0.50;;;;;;;19.77;100.00;99583.66;15272332;19;20070;-54
2023/09/04 10:12:25;;;;;;;0.80;0.57;;;;;;;19.90;100.00;99588.50;15267334;19;20038;-57
2023/09/04 10:17:59;;;;;;;0.90;0.65;;;;;;;20.04;100.00;99586.72;15261285;19;20011;-50
2023/09/04 10:23:30;;;;;;;0.98;0.65;;;;;;;20.23;100.00;99574.28;15261024;19;20018;-48
2023/09/04 10:29:00;;;;;;;;;;;;;;;20.36;100.00;99572.72;15270066;19;20022;-49
2023/09/04 10:34:25;;;;;;;0.93;0.50;;;;;;;20.51;100.00;99570.75;15267435;19;20173;-47
2023/09/04 10:39:54;;;;;;;1.23;0.73;;;;;;;20.55;100.00;99571.22;15265543;19;20014;-48
2023/09/04 10:45:21;;;;;;;1.10;0.63;;;;;;;20.64;100.00;99570.84;15263262;19;20047;-47
2023/09/04 10:50:47;;;;;;;0.68;0.50;;;;;;;20.80;100.00;99563.41;15270048;19;20038;-47
2023/09/04 10:56:21;;;;;;;2.03;0.60;;;;;;;20.86;100.00;99562.63;15258563;19;20409;-47
2023/09/04 11:01:46;;;;;;;0.43;0.43;;;;;;;20.89;100.00;99551.25;15264621;19;20281;-49
2023/09/04 11:07:38;;;;;;;0.80;0.57;;;;;;;21.03;100.00;99535.75;15263653;19;20019;-48
2023/09/04 11:13:05;;;;;;;0.52;0.50;;;;;;;21.05;100.00;99535.53;15257647;19;20337;-47
2023/09/04 11:18:31;;;;;;;1.25;0.70;;;;;;;21.28;100.00;99542.59;15268686;19;20022;-48
2023/09/04 11:23:56;;;;;;;1.30;0.63;;;;;;;21.43;100.00;99529.59;15276892;19;20015;-53
2023/09/04 11:29:25;;;;;;;1.33;0.90;;;;;;;21.53;100.00;99527.31;15275912;19;20019;-48
2023/09/04 11:34:53;;;;;;;1.58;0.60;;;;;;;21.64;100.00;99527.78;15278381;19;20024;-50
2023/09/04 11:40:18;;;;;;;0.90;0.50;;;;;;;21.84;100.00;99520.47;15281988;19;20077;-48
2023/09/04 11:45:47;;;;;;;1.52;0.70;;;;;;;22.02;100.00;99527.25;15269789;19;20010;-50
2023/09/04 11:51:13;;;;;;;1.00;0.70;;;;;;;22.14;100.00;99520.09;15280806;19;20021;-49
2023/09/04 11:56:40;;;;;;;1.90;0.60;;;;;;;22.31;100.00;99509.53;15275636;19;20027;-48
2023/09/04 12:02:07;;;;;;;0.52;0.52;;;;;;;22.50;100.00;99504.25;15270046;19;20014;-49
2023/09/04 12:07:32;;;;;;;0.65;0.50;;;;;;;22.67;100.00;99507.41;15280371;19;20029;-50
2023/09/04 12:13:03;;;;;;;1.00;0.60;;;;;;;22.82;100.00;99501.66;15274873;19;20055;-51
2023/09/04 12:18:30;;;;;;;1.20;0.70;;;;;;;22.98;100.00;99497.63;15273709;19;20021;-48
2023/09/04 12:23:55;;;;;;;1.73;0.70;;;;;;;23.11;100.00;99495.88;15274380;19;20014;-48
2023/09/04 12:29:21;;;;;;;1.17;0.50;;;;;;;23.36;100.00;99494.09;15277651;19;20505;-48
2023/09/04 12:34:48;;;;;;;2.08;0.60;;;;;;;23.57;100.00;99491.25;15265441;19;20017;-48
2023/09/04 12:40:14;;;;;;;0.65;0.57;;;;;;;23.80;98.78;99487.94;15276416;19;20074;-48
2023/09/04 12:45:39;;;;;;;0.93;0.70;;;;;;;23.89;99.49;99485.75;15271681;19;20018;-48
2023/09/04 12:51:07;;;;;;;2.22;0.50;;;;;;;24.02;93.32;99476.59;15269822;19;20096;-47
2023/09/04 12:56:32;;;;;;;0.90;0.60;;;;;;;24.23;100.00;99464.31;15272353;19;20018;-51
2023/09/04 13:01:58;;;;;;;1.67;0.60;;;;;;;24.41;92.17;99458.00;15274788;19;20038;-49
2023/09/04 13:07:25;;;;;;;1.92;0.60;;;;;;;24.66;94.46;99455.25;15265892;19;20010;-48
2023/09/04 13:12:50;;;;;;;0.85;0.45;;;;;;;24.90;80.22;99447.97;15270314;19;20022;-50
2023/09/04 13:18:15;;;;;;;0.63;0.50;;;;;;;25.21;87.43;99450.78;15269207;19;20028;-48
2023/09/04 13:23:43;;;;;;;1.05;0.70;;;;;;;25.51;77.05;99442.56;15263046;19;20032;-51
2023/09/04 13:29:07;;;;;;;2.05;0.80;;;;;;;25.80;82.52;99428.97;15273141;19;20014;-48
2023/09/04 13:34:32;;;;;;;1.70;0.47;;;;;;;26.07;72.27;99422.16;15267973;19;20028;-51
2023/09/04 13:40:00;;;;;;;3.90;0.60;;;;;;;26.18;76.05;99417.72;15265739;19;20018;-49
2023/09/04 13:45:25;;;;;;;0.52;0.50;;;;;;;26.34;71.15;99403.22;15264741;19;20030;-48
2023/09/04 13:50:50;;;;;;;0.85;0.50;;;;;;;26.61;69.58;99409.06;15270575;19;20862;-49
2023/09/04 13:56:18;;;;;;;0.60;0.60;;;;;;;26.73;60.83;99405.44;15263245;19;20356;-48
2023/09/04 14:01:44;;;;;;;1.52;0.63;;;;;;;26.96;66.75;99396.28;15268030;19;20010;-51
2023/09/04 14:07:09;;;;;;;2.38;0.47;;;;;;;27.38;61.69;99404.28;15263730;19;20549;-49
2023/09/04 14:12:36;;;;;;;0.88;0.60;;;;;;;27.71;60.14;99395.44;15258311;19;20014;-48
2023/09/04 14:18:07;;;;;;;0.68;0.40;;;;;;;27.80;57.23;99393.97;15267712;19;20015;-49
2023/09/04 14:23:32;;;;;;;1.55;0.47;;;;;;;28.14;56.57;99391.22;15266318;19;20014;-48
2023/09/04 14:28:59;;;;;;;0.75;0.50;;;;;;;28.46;55.18;99385.00;15262217;19;20754;-49
2023/09/04 14:34:26;;;;;;;0.75;0.43;;;;;;;28.60;52.22;99389.09;15263261;19;20364;-48
2023/09/04 14:39:52;;;;;;;1.08;0.50;;;;;;;28.77;56.25;99379.06;15262726;19;20026;-49
2023/09/04 14:45:20;;;;;;;0.73;0.50;;;;;;;28.99;53.18;99379.88;15261578;19;20015;-49
2023/09/04 14:50:48;;;;;;;3.90;0.50;;;;;;;29.04;53.81;99382.72;15266822;19;20494;-49
2023/09/04 14:56:14;;;;;;;0.38;0.38;;;;;;;29.08;52.83;99384.97;15267903;19;20017;-49
2023/09/04 15:01:41;;;;;;;0.70;0.50;;;;;;;29.32;53.44;99371.63;15275054;19;20053;-49
2023/09/04 15:07:07;;;;;;;5.00;0.60;;;;;;;29.55;51.64;99373.25;15275650;19;20025;-52
2023/09/04 15:12:33;;;;;;;0.70;0.50;;;;;;;29.45;53.90;99365.69;15272754;19;21814;-49
2023/09/04 15:18:08;;;;;;;1.17;0.47;;;;;;;29.55;50.64;99364.09;15275185;19;20070;-49
2023/09/04 15:23:33;;;;;;;2.63;0.50;;;;;;;29.79;50.00;99351.53;15279613;19;20511;-51
2023/09/04 15:28:59;;;;;;;3.90;0.70;;;;;;;29.68;50.66;99344.22;15281441;19;20485;-50
2023/09/04 15:34:27;;;;;;;2.60;0.30;;;;;;;29.59;49.48;99352.22;15271707;19;20014;-49
2023/09/04 15:39:51;;;;;;;0.65;0.45;;;;;;;29.57;51.77;99342.47;15282782;19;20010;-53
2023/09/04 15:45:16;;;;;;;1.67;0.50;;;;;;;29.58;49.90;99333.88;15268492;19;20093;-52
2023/09/04 15:50:44;;;;;;;3.50;0.50;;;;;;;29.51;51.85;99334.09;15279209;19;20018;-51
2023/09/04 15:56:09;;;;;;;1.85;0.60;;;;;;;29.42;49.94;99330.13;15274287;19;20020;-49
2023/09/04 16:01:34;;;;;;;3.75;0.43;;;;;;;29.35;51.11;99323.94;15277569;19;20017;-52
2023/09/04 16:07:03;;;;;;;0.98;0.60;;;;;;;29.35;50.27;99323.94;15272006;19;20029;-49
2023/09/04 16:12:42;;;;;;;0.68;0.40;;;;;;;29.43;48.88;99312.38;15276982;19;20041;-51
2023/09/04 16:18:07;;;;;;;2.70;0.50;;;;;;;29.58;50.23;99310.84;15259091;19;20019;-60
2023/09/04 16:23:35;;;;;;;1.48;0.40;;;;;;;29.65;50.55;99305.88;15275431;19;20014;-60
2023/09/04 16:29:00;;;;;;;2.13;0.40;;;;;;;29.51;49.73;99306.31;15274395;19;20015;-57
2023/09/04 16:34:24;;;;;;;0.50;0.38;;;;;;;29.36;51.68;99298.72;15271127;19;20031;-58
2023/09/04 16:39:52;;;;;;;3.50;0.40;;;;;;;29.26;48.60;99303.28;15276989;19;21410;-57
2023/09/04 16:45:19;;;;;;;2.17;0.30;;;;;;;29.29;51.50;99305.56;15269224;19;20081;-58
2023/09/04 16:50:44;;;;;;;1.05;0.60;;;;;;;29.25;50.74;99301.63;15269165;19;20015;-58
2023/09/04 16:56:12;;;;;;;1.73;0.50;;;;;;;29.17;53.01;99301.00;15274440;19;20033;-59
2023/09/04 17:01:37;;;;;;;2.17;0.50;;;;;;;29.11;51.80;99298.44;15274430;19;20032;-59
2023/09/04 17:07:02;;;;;;;0.77;0.50;;;;;;;29.03;53.03;99299.75;15264783;19;20090;-58
2023/09/04 17:12:31;;;;;;;1.30;0.40;;;;;;;28.85;52.78;99292.63;15275594;19;20018;-59
2023/09/04 17:18:02;;;;;;;3.78;0.60;;;;;;;28.34;54.26;99278.97;15272696;19;20474;-52
2023/09/04 17:23:27;;;;;;;2.85;0.40;;;;;;;27.65;55.78;99287.41;15255320;19;20018;-54
2023/09/04 17:28:54;;;;;;;3.05;0.60;;;;;;;26.94;58.91;99282.31;15272146;19;20035;-53
2023/09/04 17:34:19;;;;;;;2.35;0.40;;;;;;;26.39;61.03;99281.78;15269427;19;20021;-55
2023/09/04 17:39:43;;;;;;;1.75;0.50;;;;;;;25.75;67.69;99268.75;15266703;19;20073;-54
2023/09/04 17:45:12;;;;;;;1.15;0.50;;;;;;;25.10;75.20;99264.94;15266847;19;20021;-56
2023/09/04 17:50:36;;;;;;;1.52;0.60;;;;;;;24.60;83.54;99260.53;15270907;19;20031;-56
2023/09/04 17:56:01;;;;;;;1.27;0.60;;;;;;;24.12;89.89;99270.47;15259210;19;20093;-55
2023/09/04 18:01:29;;;;;;;1.38;0.47;;;;;;;23.62;97.32;99274.94;15271204;19;20018;-50
2023/09/04 18:06:54;;;;;;;2.75;0.70;;;;;;;23.27;100.00;99285.63;15268619;19;20074;-52
2023/09/04 18:12:19;;;;;;;1.10;0.60;;;;;;;22.90;100.00;99278.00;15261252;19;20010;-55
2023/09/04 18:17:53;;;;;;;1.92;0.70;;;;;;;22.54;100.00;99266.59;15266812;19;20077;-54
2023/09/04 18:23:18;;;;;;;2.08;0.52;;;;;;;22.24;100.00;99274.53;15267552;19;20667;-52
2023/09/04 18:28:45;;;;;;;1.33;0.60;;;;;;;22.00;100.00;99279.66;15261168;19;20347;-52
2023/09/04 18:34:13;;;;;;;2.20;0.50;;;;;;;21.76;100.00;99282.03;15266002;19;20021;-55
2023/09/04 18:39:38;;;;;;;3.60;0.70;;;;;;;21.56;100.00;99284.75;15269210;19;20022;-52
2023/09/04 18:45:06;;;;;;;1.58;0.80;;;;;;;21.37;100.00;99278.22;15258432;19;20086;-52
2023/09/04 18:50:33;;;;;;;2.50;0.82;;;;;;;21.18;100.00;99283.50;15270197;19;20029;-53
2023/09/04 18:56:01;;;;;;;2.28;0.70;;;;;;;21.03;100.00;99280.97;15264168;19;20014;-51
2023/09/04 19:01:26;;;;;;;2.08;0.60;;;;;;;20.97;100.00;99278.19;15261437;19;20349;-53
2023/09/04 19:06:53;;;;;;;0.85;0.70;;;;;;;20.85;100.00;99287.03;15265141;19;20018;-51
2023/09/04 19:12:17;;;;;;;1.23;0.50;;;;;;;20.73;100.00;99283.19;15267185;19;20010;-50
2023/09/04 19:17:48;;;;;;;0.93;0.70;;;;;;;20.58;100.00;99292.41;15257752;19;20034;-52
2023/09/04 19:23:16;;;;;;;2.15;0.70;;;;;;;20.39;100.00;99293.16;15263070;19;20085;-50
2023/09/04 19:28:41;;;;;;;1.85;0.60;;;;;;;20.19;100.00;99288.44;15262394;19;20090;-52
2023/09/04 19:34:08;;;;;;;1.15;0.68;;;;;;;20.07;100.00;99284.56;15255093;19;20014;-54
2023/09/04 19:39:36;;;;;;;0.85;0.60;;;;;;;19.98;100.00;99276.53;15266782;19;20014;-53
2023/09/04 19:45:22;;;;;;;2.05;0.52;;;;;;;19.93;100.00;99286.41;15274846;19;20010;-54
2023/09/04 19:50:47;;;;;;;1.02;0.68;;;;;;;19.86;100.00;99287.22;15273014;19;20019;-52
2023/09/04 19:56:15;;;;;;;1.45;0.70;;;;;;;19.77;100.00;99287.53;15268037;19;20014;-52
2023/09/04 20:01:40;;;;;;;4.75;0.80;;;;;;;19.69;100.00;99286.66;15255667;19;20033;-53
2023/09/04 20:07:04;;;;;;;2.97;0.80;;;;;;;19.62;100.00;99298.56;15267144;19;20029;-52
2023/09/04 20:12:32;;;;;;;1.13;0.60;;;;;;;19.58;100.00;99302.75;15275181;19;20006;-52
2023/09/04 20:18:04;;;;;;;3.05;0.70;;;;;;;19.52;100.00;99293.44;15275940;19;20029;-50
2023/09/04 20:23:28;;;;;;;1.42;0.75;;;;;;;19.48;100.00;99294.88;15271965;19;20550;-50
2023/09/04 20:28:56;;;;;;;1.48;0.80;;;;;;;19.41;100.00;99294.81;15274790;19;20007;-50
2023/09/04 20:34:21;;;;;;;2.00;0.77;;;;;;;19.37;100.00;99301.75;15276841;19;20500;-52
2023/09/04 20:39:46;;;;;;;0.95;0.70;;;;;;;19.30;100.00;99289.88;15275728;19;20045;-49
2023/09/04 20:45:13;;;;;;;0.70;0.70;;;;;;;19.25;100.00;99288.63;15271900;19;20051;-50
2023/09/04 20:50:38;;;;;;;2.72;0.63;;;;;;;19.17;100.00;99285.16;15276521;19;20022;-51
2023/09/04 20:56:03;;;;;;;1.20;0.70;;;;;;;19.12;100.00;99291.22;15263155;19;20026;-51
2023/09/04 21:01:31;;;;;;;1.00;0.57;;;;;;;19.04;100.00;99278.53;15272277;19;20051;-51
2023/09/04 21:06:56;;;;;;;2.13;0.70;;;;;;;18.92;100.00;99278.19;15265892;19;20028;-51
2023/09/04 23:22:21;;;;;;;1.88;0.85;;;;;;;17.31;100.00;99246.06;15279136;19;20019;-52
2023/09/04 23:27:45;;;;;;;2.45;0.82;;;;;;;17.31;100.00;99251.50;15280590;19;20013;-49
2023/09/04 23:33:15;;;;;;;1.67;0.88;;;;;;;17.32;100.00;99247.75;15280104;19;20018;-50
2023/09/04 23:39:05;;;;;;;1.10;0.80;;;;;;;17.35;100.00;99243.81;15279599;19;20122;-50
2023/09/04 23:50:09;;;;;;;1.45;0.93;;;;;;;17.39;100.00;99240.56;15274038;19;20025;-51
2023/09/04 23:55:34;;;;;;;0.80;0.70;;;;;;;17.40;100.00;99253.13;15275642;19;20050;-51
